Time;durP1;ratioP1;P1;durP2;ratioP2;P2;SDS_P1;SDS_P2;PMS_P1;PMS_P2;Temp;Humidity;BMP_temperature;BMP_pressure;BME280_temperature;BME280_humidity;BME280_pressure;Samples;Min_cycle;Max_cycle;Signal;HPM_P1;HPM_P2
2022/09/05 00:00:30;;;;;;;10.52;2.15;;;25.90;52.60;;;;;;6271969;28;20033;-78
2022/09/05 00:03:35;;;;;;;5.57;2.10;;;25.90;52.40;;;;;;6256775;28;20037;-75
2022/09/05 00:06:42;;;;;;;4.40;1.70;;;25.80;52.40;;;;;;6265086;28;20021;-76
2022/09/05 00:10:07;;;;;;;2.90;1.90;;;25.80;52.60;;;;;;6287029;28;20040;-76
2022/09/05 00:13:16;;;;;;;6.25;1.80;;;25.80;52.80;;;;;;6269204;28;20039;-78
2022/09/05 00:16:47;;;;;;;8.50;1.92;;;25.80;52.90;;;;;;6266468;28;20037;-76
2022/09/05 00:20:31;;;;;;;6.47;2.20;;;25.70;53.00;;;;;;6247969;28;20045;-78
2022/09/05 00:24:10;;;;;;;7.22;1.98;;;25.70;53.10;;;;;;6290425;28;20045;-76
2022/09/05 00:27:25;;;;;;;4.30;1.90;;;25.70;53.10;;;;;;6282340;28;20036;-76
2022/09/05 00:30:34;;;;;;;7.63;2.05;;;25.70;53.30;;;;;;6254656;28;20090;-76
2022/09/05 00:34:10;;;;;;;4.60;1.98;;;25.60;53.40;;;;;;6265938;28;20369;-78
2022/09/05 00:37:11;;;;;;;9.60;2.05;;;25.60;53.70;;;;;;6277485;28;20106;-79
2022/09/05 00:40:39;;;;;;;5.05;1.80;;;25.60;53.80;;;;;;6290713;28;20063;-78
2022/09/05 00:43:43;;;;;;;3.65;1.90;;;25.50;54.10;;;;;;6290036;28;20060;-78
2022/09/05 00:47:00;;;;;;;7.82;2.05;;;25.50;54.20;;;;;;6273373;28;20036;-78
2022/09/05 00:50:09;;;;;;;6.95;2.35;;;25.50;54.50;;;;;;6291651;28;20488;-76
2022/09/05 00:53:25;;;;;;;9.07;2.05;;;25.50;54.70;;;;;;6286157;28;20036;-77
2022/09/05 00:56:48;;;;;;;3.45;1.63;;;25.40;54.80;;;;;;6251988;28;20071;-76
2022/09/05 01:00:07;;;;;;;9.40;2.05;;;25.30;55.00;;;;;;6277249;28;20032;-76
2022/09/05 01:03:16;;;;;;;3.70;1.90;;;25.30;55.00;;;;;;6293507;28;20028;-76
2022/09/05 01:06:51;;;;;;;2.78;1.85;;;25.30;55.00;;;;;;6292682;28;20094;-76
2022/09/05 01:10:36;;;;;;;1.80;1.52;;;25.30;55.00;;;;;;6293601;28;20033;-76
2022/09/05 01:13:46;;;;;;;3.78;1.77;;;25.30;55.00;;;;;;6270477;28;20086;-76
2022/09/05 01:16:53;;;;;;;6.45;2.20;;;25.30;55.00;;;;;;6273195;28;20036;-76
2022/09/05 01:20:12;;;;;;;2.13;1.70;;;25.30;55.00;;;;;;6275055;28;20048;-76
2022/09/05 01:23:25;;;;;;;3.70;1.67;;;25.30;55.10;;;;;;6271335;28;20058;-77
2022/09/05 01:26:44;;;;;;;2.90;2.25;;;25.20;55.10;;;;;;6273189;28;20033;-77
2022/09/05 01:29:57;;;;;;;6.88;2.00;;;25.20;55.20;;;;;;6289417;28;20043;-76
2022/09/05 01:33:07;;;;;;;4.07;2.15;;;25.10;55.10;;;;;;6273467;28;20512;-76
2022/09/05 01:36:26;;;;;;;2.28;1.58;;;25.10;55.10;;;;;;6272615;28;20052;-76
2022/09/05 01:39:32;;;;;;;4.18;2.08;;;25.10;55.00;;;;;;6274858;28;20033;-76
2022/09/05 01:42:41;;;;;;;3.05;1.80;;;25.10;54.90;;;;;;6291253;28;20126;-76
2022/09/05 01:46:20;;;;;;;3.33;1.90;;;25.10;54.90;;;;;;6273414;28;20124;-76
2022/09/05 01:49:45;;;;;;;7.47;2.33;;;25.10;55.10;;;;;;6262539;28;20108;-76
2022/09/05 01:52:55;;;;;;;5.72;1.70;;;25.00;55.00;;;;;;6263198;28;20493;-76
2022/09/05 01:55:55;;;;;;;6.72;2.40;;;25.00;55.00;;;;;;6265618;28;20053;-76
2022/09/05 01:59:15;;;;;;;5.60;2.10;;;25.00;55.20;;;;;;6281080;28;20047;-76
2022/09/05 02:02:31;;;;;;;5.88;2.15;;;25.00;55.40;;;;;;6268978;28;20182;-76
2022/09/05 02:06:02;;;;;;;7.18;2.67;;;25.00;55.40;;;;;;6275480;28;20038;-76
2022/09/05 02:09:15;;;;;;;3.80;2.00;;;24.90;55.50;;;;;;6267205;28;20029;-76
2022/09/05 02:12:22;;;;;;;4.68;2.17;;;25.00;55.50;;;;;;6266992;28;20116;-76
2022/09/05 02:15:27;;;;;;;5.28;1.90;;;25.00;55.60;;;;;;6265970;28;20477;-76
2022/09/05 02:19:07;;;;;;;13.30;2.10;;;24.90;55.70;;;;;;6307759;28;20424;-76
2022/09/05 02:22:08;;;;;;;;;;;24.90;55.90;;;;;;6245138;28;20151;-76
2022/09/05 02:25:16;;;;;;;14.38;1.98;;;24.90;55.80;;;;;;6266174;28;19925;-76
2022/09/05 02:28:43;;;;;;;5.90;1.80;;;24.90;55.80;;;;;;6246591;28;20064;-76
2022/09/05 02:31:47;;;;;;;3.67;1.88;;;24.90;55.90;;;;;;6277870;28;20389;-76
2022/09/05 02:35:02;;;;;;;5.40;3.03;;;24.90;56.00;;;;;;6264282;28;20029;-76
2022/09/05 02:38:22;;;;;;;5.03;2.33;;;24.90;56.10;;;;;;6260392;28;20091;-76
2022/09/05 02:41:40;;;;;;;4.03;2.15;;;24.80;56.20;;;;;;6264943;28;20029;-76
2022/09/05 02:45:12;;;;;;;7.20;1.90;;;24.80;56.50;;;;;;6263719;28;20411;-76
2022/09/05 02:48:30;;;;;;;4.10;2.28;;;24.80;56.80;;;;;;6248663;28;20276;-76
2022/09/05 02:51:34;;;;;;;2.90;1.90;;;24.70;56.80;;;;;;6284720;28;20161;-76
2022/09/05 02:54:45;;;;;;;3.90;1.90;;;24.70;57.00;;;;;;6285088;28;20085;-76
2022/09/05 02:57:57;;;;;;;5.30;1.70;;;24.70;57.10;;;;;;6261340;28;20037;-76
2022/09/05 03:01:16;;;;;;;3.78;2.00;;;24.60;57.20;;;;;;6266899;28;20037;-76
2022/09/05 03:04:23;;;;;;;2.33;1.70;;;24.50;57.40;;;;;;6267812;28;20033;-76
2022/09/05 03:07:47;;;;;;;3.22;1.77;;;24.50;57.60;;;;;;6269884;28;20060;-76
2022/09/05 03:11:19;;;;;;;4.82;2.30;;;24.40;57.60;;;;;;6245423;28;20100;-76
2022/09/05 03:14:50;;;;;;;8.98;1.90;;;24.40;57.90;;;;;;6215559;28;20034;-76
2022/09/05 03:18:28;;;;;;;10.40;2.67;;;24.30;57.90;;;;;;6204890;28;20042;-76
2022/09/05 03:22:14;;;;;;;3.33;2.00;;;24.30;58.10;;;;;;6217710;28;20481;-76
2022/09/05 03:25:33;;;;;;;2.08;1.85;;;24.20;58.20;;;;;;6216116;28;20030;-76
2022/09/05 03:29:02;;;;;;;9.45;1.92;;;24.20;58.20;;;;;;6219674;28;20121;-76
2022/09/05 03:32:08;;;;;;;8.38;2.10;;;24.20;58.30;;;;;;6193829;28;20375;-76
2022/09/05 03:35:34;;;;;;;6.00;1.92;;;24.20;58.30;;;;;;6221165;28;20042;-75
2022/09/05 03:38:52;;;;;;;8.27;2.47;;;24.20;58.50;;;;;;6207110;28;20060;-76
2022/09/05 03:42:19;;;;;;;3.75;2.10;;;24.20;58.50;;;;;;6237419;28;20041;-78
2022/09/05 03:45:35;;;;;;;10.02;2.78;;;24.20;58.60;;;;;;6216727;28;20181;-76
2022/09/05 03:49:07;;;;;;;5.75;2.50;;;24.20;58.60;;;;;;6236586;28;20037;-76
2022/09/05 03:52:28;;;;;;;3.00;2.25;;;24.20;58.70;;;;;;6265415;28;20048;-75
2022/09/05 03:55:31;;;;;;;5.00;2.20;;;24.20;59.40;;;;;;6267941;28;20047;-75
2022/09/05 03:58:45;;;;;;;4.68;2.47;;;24.20;58.80;;;;;;6295117;28;20036;-76
2022/09/05 04:01:50;;;;;;;8.68;2.70;;;24.10;58.90;;;;;;6277743;28;20037;-75
2022/09/05 04:05:14;;;;;;;6.30;2.28;;;24.20;59.00;;;;;;6286263;28;20038;-75
2022/09/05 04:08:45;;;;;;;6.47;2.40;;;24.20;59.00;;;;;;6268097;28;20485;-76
2022/09/05 04:11:54;;;;;;;6.35;2.15;;;24.20;59.00;;;;;;6268013;28;20033;-76
2022/09/05 04:15:27;;;;;;;7.55;2.03;;;24.20;58.90;;;;;;6293504;28;20047;-76
2022/09/05 04:18:42;;;;;;;6.53;2.53;;;24.20;58.90;;;;;;6249307;28;20482;-76
2022/09/05 04:21:57;;;;;;;7.63;2.60;;;24.20;58.80;;;;;;6284217;28;20060;-76
2022/09/05 04:25:08;;;;;;;7.32;2.65;;;24.20;58.90;;;;;;6293193;28;20042;-76
2022/09/05 04:28:17;;;;;;;4.47;2.05;;;24.10;58.80;;;;;;6291887;28;20039;-76
2022/09/05 04:31:29;;;;;;;8.90;2.53;;;24.10;58.80;;;;;;6293974;28;20112;-76
2022/09/05 04:35:02;;;;;;;10.68;2.08;;;24.00;59.00;;;;;;6249494;28;20132;-76
2022/09/05 04:38:13;;;;;;;5.90;1.98;;;24.00;59.00;;;;;;6226278;28;20099;-76
2022/09/05 04:41:22;;;;;;;5.35;2.45;;;23.90;59.10;;;;;;6261676;28;20037;-76
2022/09/05 04:44:32;;;;;;;12.98;2.88;;;23.80;59.20;;;;;;6257586;28;20075;-76
2022/09/05 04:47:47;;;;;;;8.73;2.47;;;23.80;59.30;;;;;;6259317;28;20045;-76
2022/09/05 04:51:05;;;;;;;4.57;2.20;;;23.80;59.50;;;;;;6244403;28;20029;-76
2022/09/05 04:54:23;;;;;;;5.85;2.53;;;23.70;59.50;;;;;;6261770;28;20044;-76
2022/09/05 04:57:44;;;;;;;8.20;2.20;;;23.60;59.60;;;;;;6267181;28;20037;-76
2022/09/05 05:00:56;;;;;;;6.00;2.22;;;23.60;59.80;;;;;;6264742;28;20033;-76
2022/09/05 05:04:06;;;;;;;5.68;2.47;;;23.60;59.90;;;;;;6239511;28;20064;-77
2022/09/05 05:07:25;;;;;;;9.50;2.40;;;23.50;60.10;;;;;;6266352;28;20037;-77
2022/09/05 05:10:39;;;;;;;7.00;2.13;;;23.50;61.10;;;;;;6247545;28;20445;-76
2022/09/05 05:13:47;;;;;;;7.15;2.60;;;23.40;60.30;;;;;;6235356;28;20147;-76
2022/09/05 05:16:57;;;;;;;12.05;2.35;;;23.40;60.40;;;;;;6256445;28;20041;-76
2022/09/05 05:20:33;;;;;;;5.95;2.20;;;23.40;60.50;;;;;;6258594;28;20182;-76
2022/09/05 05:23:35;;;;;;;8.18;2.50;;;23.40;60.80;;;;;;6283964;28;20036;-76
2022/09/05 05:26:51;;;;;;;9.88;2.30;;;23.30;60.70;;;;;;6290913;28;20031;-76
2022/09/05 05:29:58;;;;;;;6.57;2.58;;;23.30;60.80;;;;;;6271135;28;20036;-76
2022/09/05 05:33:10;;;;;;;6.43;2.65;;;23.30;60.80;;;;;;6255561;28;20044;-76
2022/09/05 05:36:17;;;;;;;8.80;2.70;;;23.30;60.80;;;;;;6252404;28;20041;-76
2022/09/05 05:39:27;;;;;;;9.27;3.58;;;23.30;60.90;;;;;;6247651;28;20115;-76
2022/09/05 05:42:30;;;;;;;11.98;3.53;;;23.30;61.00;;;;;;6262421;28;20060;-76
2022/09/05 05:45:32;;;;;;;5.72;2.95;;;23.40;61.00;;;;;;6243863;28;20072;-76
2022/09/05 05:48:38;;;;;;;10.75;2.97;;;23.30;61.00;;;;;;6262452;28;20095;-76
2022/09/05 05:51:49;;;;;;;5.38;2.70;;;23.30;61.00;;;;;;6265280;28;20045;-76
2022/09/05 05:55:12;;;;;;;10.50;2.17;;;23.30;61.10;;;;;;6265959;28;20052;-76
2022/09/05 05:58:57;;;;;;;8.02;2.80;;;23.30;61.10;;;;;;6249551;28;20482;-76
2022/09/05 06:02:00;;;;;;;9.00;2.40;;;23.30;61.10;;;;;;6233585;28;20335;-76
2022/09/05 06:05:21;;;;;;;9.73;2.17;;;23.30;61.10;;;;;;6215540;28;20037;-76
2022/09/05 06:08:46;;;;;;;13.52;2.80;;;23.30;61.20;;;;;;6221051;28;20393;-76
2022/09/05 06:12:18;;;;;;;7.70;2.40;;;23.30;61.30;;;;;;6239914;28;20041;-76
2022/09/05 06:15:25;;;;;;;7.60;2.80;;;23.30;61.40;;;;;;6204542;28;20045;-76
2022/09/05 06:18:34;;;;;;;6.03;2.45;;;23.30;61.30;;;;;;6220184;28;20104;-76
2022/09/05 06:22:00;;;;;;;6.50;2.67;;;23.40;61.20;;;;;;6216517;28;20029;-76
2022/09/05 06:25:22;;;;;;;4.40;2.78;;;23.40;61.10;;;;;;6216980;28;20141;-76
2022/09/05 06:28:35;;;;;;;4.80;2.25;;;23.50;61.00;;;;;;6197804;28;20034;-76
2022/09/05 06:32:05;;;;;;;12.40;3.03;;;23.60;60.90;;;;;;6202827;28;20132;-76
2022/09/05 06:35:18;;;;;;;3.85;2.38;;;23.60;60.90;;;;;;6185762;28;20156;-76
2022/09/05 06:38:50;;;;;;;6.00;3.20;;;23.60;60.40;;;;;;6285311;28;20387;-76
2022/09/05 06:42:10;;;;;;;9.95;3.72;;;23.70;60.20;;;;;;6266014;28;20033;-76
2022/09/05 06:45:36;;;;;;;15.90;3.33;;;23.70;59.90;;;;;;6271010;28;20528;-77
2022/09/05 06:48:46;;;;;;;5.22;2.25;;;23.80;59.90;;;;;;6303182;28;20381;-76
2022/09/05 06:52:23;;;;;;;9.75;2.50;;;23.90;59.70;;;;;;6281782;28;20051;-77
2022/09/05 06:55:49;;;;;;;7.97;2.80;;;23.90;59.60;;;;;;6258448;28;20094;-76
2022/09/05 06:59:05;;;;;;;6.40;2.60;;;24.00;59.40;;;;;;6290900;28;20380;-76
2022/09/05 07:02:30;;;;;;;7.82;2.92;;;24.20;59.20;;;;;;6259246;28;20513;-76
2022/09/05 07:05:43;;;;;;;4.38;2.55;;;24.30;58.90;;;;;;6283600;28;20048;-77
2022/09/05 07:09:00;;;;;;;3.50;2.22;;;24.40;58.70;;;;;;6276094;28;20037;-77
2022/09/05 07:12:21;;;;;;;5.47;1.90;;;24.60;58.50;;;;;;6253770;28;20533;-77
2022/09/05 07:15:32;;;;;;;5.40;2.65;;;24.70;58.00;;;;;;6265512;28;20037;-76
2022/09/05 07:18:51;;;;;;;8.57;2.60;;;24.90;57.50;;;;;;6261086;28;20131;-77
2022/09/05 07:22:06;;;;;;;8.65;2.60;;;25.00;57.10;;;;;;6282989;28;20120;-76
2022/09/05 07:25:11;;;;;;;6.65;3.33;;;25.20;56.90;;;;;;6256249;28;20051;-76
2022/09/05 07:28:14;;;;;;;9.95;2.40;;;25.40;56.70;;;;;;6258712;28;20049;-77
2022/09/05 07:31:22;;;;;;;6.75;2.22;;;25.50;56.10;;;;;;6285596;28;20037;-76
2022/09/05 07:34:30;;;;;;;5.43;2.30;;;25.70;55.60;;;;;;6274290;28;20040;-76
2022/09/05 07:37:39;;;;;;;5.93;2.25;;;25.80;55.30;;;;;;6250320;28;20052;-76
2022/09/05 07:40:51;;;;;;;11.02;2.63;;;25.90;55.10;;;;;;6265972;28;20033;-76
2022/09/05 07:44:01;;;;;;;8.30;2.60;;;26.10;54.80;;;;;;6282334;28;20040;-76
2022/09/05 07:47:09;;;;;;;2.38;1.73;;;26.30;54.40;;;;;;6258527;28;20082;-77
2022/09/05 07:50:10;;;;;;;;;;;26.50;53.70;;;;;;6286610;28;20090;-77
2022/09/05 07:53:15;;;;;;;9.43;1.98;;;26.60;53.10;;;;;;6294754;28;19948;-77
2022/09/05 07:56:41;;;;;;;3.03;1.90;;;26.60;52.40;;;;;;6293947;28;20473;-77
2022/09/05 07:59:46;;;;;;;7.00;2.00;;;26.70;52.10;;;;;;6262234;28;20029;-77
2022/09/05 08:02:47;;;;;;;2.47;2.13;;;26.80;51.20;;;;;;6262541;28;20083;-77
2022/09/05 08:05:54;;;;;;;4.57;2.22;;;26.90;51.10;;;;;;6288916;28;20033;-77
2022/09/05 08:09:03;;;;;;;6.50;2.05;;;27.00;50.80;;;;;;6270423;28;20044;-77
2022/09/05 08:12:16;;;;;;;7.45;2.72;;;27.10;50.60;;;;;;6269574;28;20033;-78
2022/09/05 08:15:23;;;;;;;3.72;2.03;;;27.20;50.50;;;;;;6251468;28;20030;-77
2022/09/05 08:18:44;;;;;;;3.25;2.03;;;27.30;50.20;;;;;;6276354;28;20079;-77
2022/09/05 08:21:49;;;;;;;5.72;2.22;;;27.30;50.10;;;;;;6260870;28;20450;-77
2022/09/05 08:25:12;;;;;;;5.28;1.85;;;27.40;49.90;;;;;;6250791;28;20179;-78
2022/09/05 08:28:25;;;;;;;5.95;2.22;;;27.50;49.20;;;;;;6248730;28;20132;-78
2022/09/05 08:31:55;;;;;;;7.03;1.80;;;27.60;48.70;;;;;;6268461;28;20040;-76
2022/09/05 08:35:25;;;;;;;5.00;2.05;;;27.60;48.40;;;;;;6259430;28;20036;-77
2022/09/05 08:38:29;;;;;;;7.60;1.95;;;27.60;48.40;;;;;;6248683;28;20123;-77
2022/09/05 08:41:53;;;;;;;3.65;2.03;;;27.70;48.50;;;;;;6254260;28;20102;-77
2022/09/05 08:45:03;;;;;;;12.63;3.50;;;27.80;48.50;;;;;;6272718;28;20481;-77
2022/09/05 08:48:07;;;;;;;16.00;6.00;;;27.90;48.30;;;;;;6262066;28;20053;-77
2022/09/05 08:51:38;;;;;;;20.38;9.82;;;28.10;48.10;;;;;;6287002;28;20181;-77
2022/09/05 08:54:52;;;;;;;18.35;7.32;;;28.20;47.90;;;;;;6269519;28;20041;-77
2022/09/05 08:58:02;;;;;;;11.63;4.75;;;28.30;47.60;;;;;;6250292;28;20047;-77
2022/09/05 09:01:05;;;;;;;5.57;2.33;;;28.50;47.50;;;;;;6260853;28;20530;-77
2022/09/05 09:04:24;;;;;;;5.97;2.88;;;28.60;47.00;;;;;;6271173;28;20390;-77
2022/09/05 09:07:42;;;;;;;15.85;5.18;;;28.60;46.90;;;;;;6254863;28;20913;-77
2022/09/05 09:11:17;;;;;;;7.50;3.70;;;28.60;46.90;;;;;;6259018;28;20040;-77
2022/09/05 09:14:56;;;;;;;5.80;2.60;;;28.60;47.00;;;;;;6268034;28;20044;-77
2022/09/05 09:17:58;;;;;;;5.28;2.60;;;28.60;47.20;;;;;;6252056;28;20091;-77
2022/09/05 09:21:22;;;;;;;6.22;2.78;;;28.70;47.20;;;;;;6251580;28;20033;-77
2022/09/05 09:24:52;;;;;;;5.63;3.30;;;28.80;47.40;;;;;;6274799;28;20528;-76
2022/09/05 09:28:18;;;;;;;5.85;3.60;;;28.90;47.20;;;;;;6253319;28;20061;-77
2022/09/05 09:31:37;;;;;;;7.68;2.40;;;29.00;46.60;;;;;;6253923;28;20049;-76
2022/09/05 09:34:54;;;;;;;10.27;4.15;;;29.00;46.70;;;;;;6269444;28;20033;-76
2022/09/05 09:38:07;;;;;;;32.08;4.82;;;29.10;46.70;;;;;;6244754;28;20148;-77
2022/09/05 09:41:29;;;;;;;22.58;3.13;;;29.30;46.50;;;;;;6295789;28;20078;-77
2022/09/05 09:44:55;;;;;;;6.88;2.30;;;29.30;46.00;;;;;;6260878;28;20322;-77
2022/09/05 09:48:15;;;;;;;4.95;1.98;;;29.40;45.90;;;;;;6258108;28;20076;-76
2022/09/05 09:51:25;;;;;;;3.75;2.05;;;29.50;45.80;;;;;;6251256;28;20053;-77
2022/09/05 09:54:26;;;;;;;4.10;2.40;;;29.60;45.50;;;;;;6281831;28;20048;-77
2022/09/05 09:57:44;;;;;;;11.43;5.55;;;29.60;45.30;;;;;;6270415;28;20466;-77
2022/09/05 10:00:56;;;;;;;16.25;2.35;;;29.60;45.40;;;;;;6277359;28;20042;-77
2022/09/05 10:04:21;;;;;;;14.70;3.03;;;29.70;45.20;;;;;;6275241;28;20120;-77
2022/09/05 10:07:41;;;;;;;17.60;4.20;;;29.70;45.20;;;;;;6276336;28;20040;-76
2022/09/05 10:11:11;;;;;;;4.43;2.35;;;29.80;45.10;;;;;;6280330;28;20086;-77
2022/09/05 10:14:43;;;;;;;9.20;2.40;;;29.90;45.00;;;;;;6280491;28;20055;-77
2022/09/05 10:18:11;;;;;;;9.40;2.45;;;30.00;44.80;;;;;;6279503;28;20043;-78
2022/09/05 10:21:53;;;;;;;8.35;2.75;;;30.10;44.50;;;;;;6279999;28;20135;-79
2022/09/05 10:25:12;;;;;;;9.45;2.22;;;30.20;44.50;;;;;;6266143;28;21418;-78
2022/09/05 10:28:48;;;;;;;12.50;2.33;;;30.20;44.50;;;;;;6291505;28;20056;-78
2022/09/05 10:32:09;;;;;;;9.88;2.67;;;30.20;44.50;;;;;;6250402;28;20060;-77
2022/09/05 10:35:17;;;;;;;8.48;2.28;;;30.30;44.50;;;;;;6275055;28;20186;-81
2022/09/05 10:38:39;;;;;;;11.77;2.55;;;30.30;44.40;;;;;;6270056;28;20498;-78
2022/09/05 10:41:48;;;;;;;4.07;1.85;;;30.40;44.10;;;;;;6290324;28;20033;-77
2022/09/05 10:44:56;;;;;;;9.10;2.30;;;30.70;43.70;;;;;;6266496;28;20033;-77
2022/09/05 10:48:29;;;;;;;2.90;1.92;;;31.00;42.90;;;;;;6259670;28;20053;-77
2022/09/05 10:51:57;;;;;;;13.23;2.38;;;31.40;42.30;;;;;;6255881;28;20040;-78
2022/09/05 10:55:16;;;;;;;6.07;2.45;;;31.80;41.40;;;;;;6269266;28;20152;-76
2022/09/05 10:58:32;;;;;;;14.77;2.47;;;32.20;40.90;;;;;;6291491;28;20479;-76
2022/09/05 11:01:42;;;;;;;6.75;2.38;;;32.50;40.60;;;;;;6290684;28;20580;-76
2022/09/05 11:04:49;;;;;;;5.95;2.17;;;32.70;40.00;;;;;;6273795;28;20504;-77
2022/09/05 11:08:11;;;;;;;5.47;2.30;;;32.90;39.60;;;;;;6286866;28;20122;-77
2022/09/05 11:11:18;;;;;;;7.70;2.30;;;33.10;38.90;;;;;;6283414;28;20068;-76
2022/09/05 11:14:41;;;;;;;10.50;2.22;;;33.30;38.70;;;;;;6275086;28;20134;-77
2022/09/05 11:17:57;;;;;;;12.20;2.85;;;33.40;38.40;;;;;;6272194;28;20037;-78
2022/09/05 11:21:27;;;;;;;6.32;2.55;;;33.50;38.10;;;;;;6282889;28;20496;-77
2022/09/05 11:24:40;;;;;;;4.63;2.03;;;33.70;38.00;;;;;;6264480;28;20098;-78
2022/09/05 11:27:44;;;;;;;8.13;2.10;;;33.90;37.50;;;;;;6276897;28;20029;-77
2022/09/05 11:30:52;;;;;;;4.22;2.20;;;34.00;37.10;;;;;;6260363;28;20340;-77
2022/09/05 11:34:05;;;;;;;7.32;1.95;;;34.30;36.60;;;;;;6253200;28;20052;-77
2022/09/05 11:37:45;;;;;;;8.15;2.03;;;34.60;36.20;;;;;;6249297;28;20049;-77
2022/09/05 11:40:46;;;;;;;9.30;2.40;;;34.90;35.70;;;;;;6225068;28;20599;-77
2022/09/05 11:44:27;;;;;;;5.72;1.80;;;35.20;35.30;;;;;;6257732;28;20045;-77
2022/09/05 11:48:08;;;;;;;8.45;2.08;;;35.30;34.50;;;;;;6212539;28;20034;-76
2022/09/05 11:51:40;;;;;;;5.97;2.05;;;35.60;34.20;;;;;;6229775;28;20370;-77
2022/09/05 11:54:59;;;;;;;10.57;1.92;;;35.70;33.90;;;;;;6243753;28;20045;-76
2022/09/05 11:58:05;;;;;;;7.38;2.20;;;35.90;34.10;;;;;;6252988;28;20033;-77
2022/09/05 12:01:15;;;;;;;6.40;2.00;;;36.20;33.20;;;;;;6245205;28;20114;-75
2022/09/05 12:04:53;;;;;;;9.35;2.03;;;36.50;33.10;;;;;;6245734;28;20368;-76
2022/09/05 12:08:23;;;;;;;8.48;2.08;;;36.80;32.60;;;;;;6245760;28;20128;-76
2022/09/05 12:11:23;;;;;;;10.70;2.00;;;36.90;32.30;;;;;;6234820;28;20094;-77
2022/09/05 12:14:46;;;;;;;6.03;1.63;;;37.20;32.40;;;;;;6224155;28;20069;-77
2022/09/05 12:18:02;;;;;;;5.80;1.95;;;37.50;31.90;;;;;;6266450;28;20032;-77
2022/09/05 12:21:29;;;;;;;4.93;1.70;;;37.90;31.50;;;;;;6250137;28;20041;-76
2022/09/05 12:25:06;;;;;;;2.67;1.80;;;38.40;30.40;;;;;;6261341;28;20482;-77
2022/09/05 12:28:16;;;;;;;5.10;1.60;;;38.80;30.20;;;;;;6267277;28;20040;-77
2022/09/05 12:31:20;;;;;;;3.55;1.80;;;39.30;29.90;;;;;;6248066;28;20369;-76
2022/09/05 12:34:49;;;;;;;6.18;1.90;;;39.80;29.20;;;;;;6248481;28;20361;-76
2022/09/05 12:38:14;;;;;;;7.28;1.75;;;40.30;28.60;;;;;;6248800;28;20057;-77
2022/09/05 12:41:21;;;;;;;8.93;2.22;;;40.70;28.20;;;;;;6243859;28;20795;-77
2022/09/05 12:44:48;;;;;;;5.53;1.80;;;41.20;27.50;;;;;;6264063;28;20037;-76
2022/09/05 12:48:07;;;;;;;4.20;1.83;;;41.70;27.00;;;;;;6252894;28;20045;-76
2022/09/05 12:51:18;;;;;;;5.40;1.83;;;42.20;26.50;;;;;;6244049;28;20072;-76
2022/09/05 12:54:32;;;;;;;5.40;1.80;;;42.60;26.00;;;;;;6253021;28;20402;-76
2022/09/05 12:57:34;;;;;;;9.38;1.45;;;42.90;25.20;;;;;;6258270;28;20055;-75
2022/09/05 13:00:45;;;;;;;12.00;2.17;;;43.20;25.00;;;;;;6300272;28;20033;-76
2022/09/05 13:03:55;;;;;;;5.88;1.67;;;43.40;24.40;;;;;;6257409;28;20041;-75
2022/09/05 13:07:04;;;;;;;6.38;1.60;;;43.70;23.70;;;;;;6269322;28;20125;-75
2022/09/05 13:10:14;;;;;;;5.78;1.90;;;43.10;23.90;;;;;;6269425;28;20044;-77
2022/09/05 13:13:46;;;;;;;12.38;1.95;;;42.50;24.50;;;;;;6265397;28;20033;-77
2022/09/05 13:16:49;;;;;;;9.18;1.92;;;41.80;25.70;;;;;;6257741;28;20098;-78
2022/09/05 13:19:51;;;;;;;9.45;1.70;;;42.10;25.40;;;;;;6270055;28;20068;-78
2022/09/05 13:22:52;;;;;;;6.53;1.75;;;41.50;25.90;;;;;;6271032;28;20060;-77
2022/09/05 13:26:04;;;;;;;5.63;1.98;;;40.50;26.80;;;;;;6252967;28;20033;-78
2022/09/05 13:29:47;;;;;;;9.85;2.15;;;40.20;27.40;;;;;;6283391;28;20033;-79
2022/09/05 13:32:50;;;;;;;5.30;1.70;;;40.60;27.20;;;;;;6261547;28;20033;-79
2022/09/05 13:36:05;;;;;;;4.75;1.88;;;41.40;26.60;;;;;;6282868;28;20039;-77
2022/09/05 13:39:16;;;;;;;7.57;1.80;;;41.50;26.00;;;;;;6285698;28;20029;-76
2022/09/05 13:42:24;;;;;;;10.40;1.95;;;40.70;26.40;;;;;;6287170;28;20075;-78
2022/09/05 13:45:25;;;;;;;5.28;1.70;;;39.70;27.10;;;;;;6271805;28;20453;-79
2022/09/05 13:48:48;;;;;;;8.05;1.65;;;38.90;27.80;;;;;;6266101;28;20150;-77
2022/09/05 13:52:14;;;;;;;9.50;2.38;;;38.20;28.40;;;;;;6272640;28;20032;-78
2022/09/05 13:55:28;;;;;;;7.53;1.83;;;37.40;28.80;;;;;;6256586;28;20443;-78
2022/09/05 13:58:43;;;;;;;7.82;2.05;;;36.90;29.20;;;;;;6267625;28;20040;-77
2022/09/05 14:02:05;;;;;;;5.40;1.63;;;36.60;29.60;;;;;;6267697;28;20048;-78
2022/09/05 14:05:24;;;;;;;7.28;1.80;;;36.20;29.80;;;;;;6266849;28;20028;-77
2022/09/05 14:08:38;;;;;;;7.22;1.70;;;36.00;30.00;;;;;;6266022;28;20049;-78
2022/09/05 14:11:45;;;;;;;12.18;1.80;;;35.90;30.20;;;;;;6274818;28;20037;-77
2022/09/05 14:14:56;;;;;;;3.63;1.55;;;35.70;30.30;;;;;;6271796;28;20102;-79
2022/09/05 14:18:03;;;;;;;7.07;2.05;;;35.50;30.70;;;;;;6261880;28;20104;-79
2022/09/05 14:21:15;;;;;;;9.57;1.43;;;35.50;31.20;;;;;;6261033;28;20039;-80
2022/09/05 14:24:23;;;;;;;11.15;1.98;;;35.50;31.50;;;;;;6267368;28;20352;-77
2022/09/05 14:27:25;;;;;;;5.55;1.73;;;35.40;31.30;;;;;;6263959;28;20056;-77
2022/09/05 14:30:53;;;;;;;7.50;1.40;;;35.40;31.20;;;;;;6257311;28;20458;-78
2022/09/05 14:34:12;;;;;;;8.25;1.70;;;35.30;31.30;;;;;;6281227;28;20055;-76
2022/09/05 14:37:24;;;;;;;12.65;1.60;;;35.10;31.40;;;;;;6291570;28;20046;-75
2022/09/05 14:41:04;;;;;;;17.35;2.15;;;35.10;31.30;;;;;;6286710;28;20033;-75
2022/09/05 14:44:11;;;;;;;14.00;2.20;;;35.10;31.30;;;;;;6267440;28;20528;-75
2022/09/05 14:47:27;;;;;;;8.38;1.85;;;35.10;31.40;;;;;;6269046;28;20048;-76
2022/09/05 14:51:02;;;;;;;12.48;1.63;;;35.10;31.60;;;;;;6273169;28;20055;-76
2022/09/05 14:54:21;;;;;;;5.43;1.65;;;35.00;31.20;;;;;;6259703;28;20064;-76
2022/09/05 14:57:29;;;;;;;16.95;2.15;;;34.90;31.50;;;;;;6286677;28;20122;-76
2022/09/05 15:00:57;;;;;;;13.13;1.70;;;34.80;31.60;;;;;;6277801;28;20044;-76
2022/09/05 15:03:58;;;;;;;7.35;1.55;;;34.80;31.30;;;;;;6263055;28;20033;-76
2022/09/05 15:07:07;;;;;;;6.45;1.80;;;34.80;31.20;;;;;;6267902;28;20036;-76
2022/09/05 15:10:34;;;;;;;7.45;1.80;;;34.80;31.30;;;;;;6280132;28;20044;-76
2022/09/05 15:13:41;;;;;;;7.68;3.53;;;34.80;31.50;;;;;;6270813;28;20068;-76
2022/09/05 15:16:56;;;;;;;5.40;1.43;;;34.80;31.30;;;;;;6273116;28;20067;-76
2022/09/05 15:20:06;;;;;;;5.18;1.55;;;34.80;31.40;;;;;;6255914;28;20045;-76
2022/09/05 15:23:29;;;;;;;7.95;1.63;;;34.80;31.30;;;;;;6271834;28;20044;-76
2022/09/05 15:26:30;;;;;;;10.48;1.77;;;34.80;31.10;;;;;;6271138;28;20024;-75
2022/09/05 15:29:34;;;;;;;11.85;1.77;;;34.80;31.00;;;;;;6281393;28;20020;-76
2022/09/05 15:32:37;;;;;;;13.68;1.92;;;34.80;31.10;;;;;;6291512;28;20032;-76
2022/09/05 15:35:42;;;;;;;6.85;1.70;;;34.80;31.20;;;;;;6262074;28;20033;-75
2022/09/05 15:38:45;;;;;;;6.32;1.98;;;34.80;31.20;;;;;;6268023;28;20037;-76
2022/09/05 15:41:46;;;;;;;16.15;2.42;;;34.80;30.80;;;;;;6265819;28;20056;-75
2022/09/05 15:44:48;;;;;;;11.10;2.15;;;34.70;30.10;;;;;;6262917;28;20421;-75
2022/09/05 15:48:10;;;;;;;16.45;2.65;;;34.70;30.00;;;;;;6260930;28;20040;-75
2022/09/05 15:51:18;;;;;;;11.82;1.67;;;34.70;29.70;;;;;;6279899;28;20070;-75
2022/09/05 15:54:34;;;;;;;10.30;2.30;;;34.80;29.40;;;;;;6265799;28;20034;-76
2022/09/05 15:57:45;;;;;;;10.55;1.77;;;34.90;29.30;;;;;;6261855;28;20037;-75
2022/09/05 16:00:51;;;;;;;15.57;1.77;;;35.10;29.30;;;;;;6263711;28;20040;-77
2022/09/05 16:03:51;;;;;;;11.48;1.80;;;35.20;29.20;;;;;;6266323;28;20029;-75
2022/09/05 16:06:57;;;;;;;18.55;2.92;;;35.40;29.10;;;;;;6257539;28;20040;-75
2022/09/05 16:10:01;;;;;;;6.20;1.77;;;36.10;28.40;;;;;;6252374;28;20086;-76
2022/09/05 16:13:12;;;;;;;11.82;1.98;;;37.40;27.30;;;;;;6261319;28;20041;-76
2022/09/05 16:16:14;;;;;;;12.27;2.10;;;37.90;26.50;;;;;;6253792;28;20033;-75
2022/09/05 16:19:42;;;;;;;11.73;2.97;;;38.10;26.30;;;;;;6255369;28;20525;-76
2022/09/05 16:22:50;;;;;;;5.25;1.50;;;38.30;26.20;;;;;;6249629;28;20043;-76
2022/09/05 16:25:57;;;;;;;7.47;1.73;;;38.90;25.80;;;;;;6254883;28;20043;-77
2022/09/05 16:29:18;;;;;;;11.65;2.40;;;39.60;25.20;;;;;;6265926;28;20484;-77
2022/09/05 16:32:20;;;;;;;8.70;1.77;;;40.10;24.50;;;;;;6278340;28;20039;-76
2022/09/05 16:35:22;;;;;;;6.32;1.90;;;40.50;24.30;;;;;;6282049;28;20056;-77
2022/09/05 16:38:30;;;;;;;10.38;2.50;;;40.40;24.30;;;;;;6275179;28;20127;-76
2022/09/05 16:41:52;;;;;;;8.73;1.98;;;39.70;24.70;;;;;;6298407;28;20105;-77
2022/09/05 16:45:13;;;;;;;11.60;2.00;;;38.70;25.30;;;;;;6271067;28;20044;-77
2022/09/05 16:48:35;;;;;;;8.98;1.90;;;37.80;26.00;;;;;;6297888;28;20050;-76
2022/09/05 16:52:05;;;;;;;17.27;1.95;;;36.90;26.80;;;;;;6292067;28;20033;-76
2022/09/05 16:55:23;;;;;;;14.02;2.35;;;36.40;27.60;;;;;;6309041;28;20046;-76
2022/09/05 16:58:30;;;;;;;26.27;9.52;;;36.00;28.00;;;;;;6284536;28;20041;-76